Hauptseite
METAR-TAF:

METAR-TAF

Flughäfen :

Flughafen Cannes - Mandelieu

Cannes, Frankreich

Breite: 43-33N, Länge: 006-57E, Höhe: 3 m

Beobachtung

Neuester Wetterbericht von vor 27 Minuten, um 13:30 UTC
Wind 10 kt aus Süd/Südost, variierte zwischen Ost/Südost und Süd
Temperatur 29°C
Luftfeuchtigkeit 52%
Luftdruck 1015 hPa
Sichtweite 10 km oder mehr
keine Wolken unter 1500 m und keine Kumulonimbus oder Gewitterwolken

METAR: LFMD 061330Z AUTO 16010KT 110V190 CAVOK 29/18 Q1015 NOSIG

Zeit: 15:57 (13:57 UTC)

Prognose

Neuester Wetterbericht von vor 5 Stunden und 57 Minuten, um 08:00 UTC
Gültige Prognose vom 06 um 09 UTC bis 07 um 09 UTC
Wind 6 kt aus Südost
Sichtweite 10 km oder mehr
keine Wolken unter 1500 m und keine Kumulonimbus oder Gewitterwolken

TAF: LFMD 060800Z 0609/0709 14006KT CAVOK

Wetterbeobachtungen und Prognosen von mehr als 4000 Flughäfen (METAR und TAF Bericht).

Die verfügbaren Stationen werden durch gelbe und rote Markierungen auf der Karte dargestellt.

Führen Sie die Maus auf sie, um den Namen der Station zu sehen.

Darauf klicken, um die Beobachtung von Wetterbeobachtungen und Prognosen zu sehen.

Um die Karte zu ändern : klicken Sie auf den grünen Tasten mit einem schwarzen Kreuz Zum Vergrößern, auf den grünen Button mit einem Gedankenstrich zu verkleinern, oder auf die grünen Pfeile für benachbarte Karten.


METAR-TAF: